Time;durP1;ratioP1;P1;durP2;ratioP2;P2;SDS_P1;SDS_P2;PMS_P1;PMS_P2;Temp;Humidity;BMP_temperature;BMP_pressure;BME280_temperature;BME280_humidity;BME280_pressure;Samples;Min_cycle;Max_cycle;Signal;HPM_P1;HPM_P2
2023/08/14 00:02:10;;;;;;;0.00;0.00;;;;;;;;;;7385961;19;20499;-69
2023/08/14 00:04:39;;;;;;;0.00;0.00;;;;;;;;;;7386968;19;20145;-69
2023/08/14 00:07:08;;;;;;;0.00;0.00;;;;;;;;;;7387735;19;20152;-69
2023/08/14 00:09:40;;;;;;;0.00;0.00;;;;;;;;;;7392346;19;20164;-68
2023/08/14 00:12:10;;;;;;;0.00;0.00;;;;;;;;;;7392472;19;20156;-68
2023/08/14 00:14:38;;;;;;;0.00;0.00;;;;;;;;;;7392834;19;20253;-68
2023/08/14 00:17:07;;;;;;;0.00;0.00;;;;;;;;;;7395357;19;20152;-68
2023/08/14 00:19:36;;;;;;;0.00;0.00;;;;;;;;;;7394568;19;20146;-68
2023/08/14 00:22:05;;;;;;;0.00;0.00;;;;;;;;;;7393179;19;20128;-68
2023/08/14 00:24:34;;;;;;;0.00;0.00;;;;;;;;;;7392299;19;20160;-69
2023/08/14 00:27:06;;;;;;;0.00;0.00;;;;;;;;;;7394768;19;20140;-69
2023/08/14 00:29:35;;;;;;;0.00;0.00;;;;;;;;;;7392269;19;20144;-69
2023/08/14 00:32:04;;;;;;;0.00;0.00;;;;;;;;;;7391705;19;20156;-68
2023/08/14 00:34:33;;;;;;;0.00;0.00;;;;;;;;;;7385490;19;20129;-69
2023/08/14 00:37:02;;;;;;;0.00;0.00;;;;;;;;;;7391562;19;20153;-69
2023/08/14 00:39:31;;;;;;;0.00;0.00;;;;;;;;;;7391343;19;20140;-69
2023/08/14 00:42:00;;;;;;;0.00;0.00;;;;;;;;;;7387606;19;20236;-68
2023/08/14 00:44:31;;;;;;;0.00;0.00;;;;;;;;;;7390155;19;20630;-68
2023/08/14 00:47:01;;;;;;;0.00;0.00;;;;;;;;;;7390595;19;20157;-68
2023/08/14 00:49:30;;;;;;;0.00;0.00;;;;;;;;;;7390390;19;20140;-68
2023/08/14 00:52:00;;;;;;;0.00;0.00;;;;;;;;;;7386683;19;20184;-67
2023/08/14 00:54:29;;;;;;;0.00;0.00;;;;;;;;;;7387749;19;20152;-69
2023/08/14 00:56:58;;;;;;;0.00;0.00;;;;;;;;;;7391076;19;20157;-69
2023/08/14 00:59:29;;;;;;;0.00;0.00;;;;;;;;;;7389838;19;20183;-69
2023/08/14 01:02:01;;;;;;;0.00;0.00;;;;;;;;;;7386872;19;20243;-69
2023/08/14 01:04:30;;;;;;;0.00;0.00;;;;;;;;;;7389826;19;20175;-69
2023/08/14 01:06:59;;;;;;;0.00;0.00;;;;;;;;;;7391232;19;20145;-67
2023/08/14 01:09:28;;;;;;;0.00;0.00;;;;;;;;;;7389717;19;20141;-69
2023/08/14 01:11:59;;;;;;;0.00;0.00;;;;;;;;;;7388619;19;20509;-69
2023/08/14 01:14:29;;;;;;;0.00;0.00;;;;;;;;;;7388781;19;20144;-69
2023/08/14 01:17:03;;;;;;;0.00;0.00;;;;;;;;;;7392359;19;20137;-69
2023/08/14 01:19:33;;;;;;;0.00;0.00;;;;;;;;;;7388824;19;20152;-69
2023/08/14 01:22:06;;;;;;;0.00;0.00;;;;;;;;;;7388752;19;20148;-69
2023/08/14 01:24:42;;;;;;;0.00;0.00;;;;;;;;;;7389507;19;20163;-69
2023/08/14 01:27:13;;;;;;;0.00;0.00;;;;;;;;;;7390790;19;20156;-68
2023/08/14 01:29:45;;;;;;;0.00;0.00;;;;;;;;;;7390086;19;20159;-69
2023/08/14 01:32:14;;;;;;;0.00;0.00;;;;;;;;;;7389972;19;20152;-68
2023/08/14 01:34:43;;;;;;;0.00;0.00;;;;;;;;;;7390290;19;20144;-68
2023/08/14 01:37:15;;;;;;;0.00;0.00;;;;;;;;;;7391034;19;20129;-70
2023/08/14 01:39:50;;;;;;;0.00;0.00;;;;;;;;;;7391236;19;20155;-68
2023/08/14 01:42:26;;;;;;;0.00;0.00;;;;;;;;;;7389479;19;20143;-69
2023/08/14 01:44:58;;;;;;;0.00;0.00;;;;;;;;;;7392107;19;20179;-68
2023/08/14 01:47:28;;;;;;;0.00;0.00;;;;;;;;;;7387730;19;20137;-68
2023/08/14 01:49:59;;;;;;;0.00;0.00;;;;;;;;;;7390330;19;20603;-69
2023/08/14 01:52:28;;;;;;;0.00;0.00;;;;;;;;;;7386089;19;20171;-69
2023/08/14 01:55:01;;;;;;;0.00;0.00;;;;;;;;;;7388411;19;20164;-69
2023/08/14 01:57:35;;;;;;;0.00;0.00;;;;;;;;;;7387939;19;20239;-68
2023/08/14 02:00:07;;;;;;;0.00;0.00;;;;;;;;;;7386423;19;20181;-69
2023/08/14 02:02:41;;;;;;;0.00;0.00;;;;;;;;;;7390678;19;20153;-69
2023/08/14 02:05:10;;;;;;;0.00;0.00;;;;;;;;;;7389689;19;20171;-70
2023/08/14 02:07:41;;;;;;;0.00;0.00;;;;;;;;;;7387576;19;20153;-69
2023/08/14 02:10:10;;;;;;;0.00;0.00;;;;;;;;;;7386061;19;20207;-69
2023/08/14 02:12:42;;;;;;;0.00;0.00;;;;;;;;;;7387712;19;20161;-69
2023/08/14 02:15:13;;;;;;;0.00;0.00;;;;;;;;;;7389322;19;20144;-69
2023/08/14 02:17:43;;;;;;;0.00;0.00;;;18.70;99.90;;;;;;7389866;19;20165;-69
2023/08/14 02:20:13;;;;;;;0.00;0.00;;;18.80;99.90;;;;;;7386586;19;20180;-68
2023/08/14 02:22:42;;;;;;;0.00;0.00;;;18.70;99.90;;;;;;7387754;19;20179;-69
2023/08/14 02:25:10;;;;;;;0.00;0.00;;;18.60;99.90;;;;;;7389244;19;20141;-69
2023/08/14 02:27:42;;;;;;;0.00;0.00;;;18.70;99.90;;;;;;7388773;19;20164;-69
2023/08/14 02:30:11;;;;;;;0.00;0.00;;;18.50;99.90;;;;;;7384780;19;20690;-68
2023/08/14 02:32:39;;;;;;;0.00;0.00;;;18.50;99.90;;;;;;7386894;19;20149;-68
2023/08/14 02:35:09;;;;;;;0.00;0.00;;;18.70;99.90;;;;;;7386870;19;20145;-69
2023/08/14 02:37:38;;;;;;;0.00;0.00;;;18.50;99.90;;;;;;7387691;19;20165;-68
2023/08/14 02:40:09;;;;;;;0.00;0.00;;;18.50;99.90;;;;;;7387525;19;20160;-70
2023/08/14 02:42:38;;;;;;;0.00;0.00;;;18.60;99.90;;;;;;7388098;19;20144;-69
2023/08/14 02:45:11;;;;;;;0.00;0.00;;;18.60;99.90;;;;;;7386530;19;20164;-69
2023/08/14 02:47:42;;;;;;;0.00;0.00;;;;;;;;;;7389152;19;20139;-69
2023/08/14 02:50:11;;;;;;;0.00;0.00;;;;;;;;;;7385604;19;20180;-69
2023/08/14 02:52:40;;;;;;;0.00;0.00;;;;;;;;;;7387722;19;20167;-69
2023/08/14 02:55:10;;;;;;;0.00;0.00;;;;;;;;;;7386101;19;20152;-69
2023/08/14 02:57:39;;;;;;;0.00;0.00;;;;;;;;;;7385785;19;20227;-68
2023/08/14 03:00:12;;;;;;;0.00;0.00;;;;;;;;;;7386434;19;20163;-68
2023/08/14 03:02:41;;;;;;;0.00;0.00;;;;;;;;;;7385811;19;20183;-69
2023/08/14 03:05:10;;;;;;;0.00;0.00;;;;;;;;;;7388896;19;20141;-68
2023/08/14 03:07:38;;;;;;;0.00;0.00;;;;;;;;;;7387146;19;20145;-69
2023/08/14 03:10:08;;;;;;;0.00;0.00;;;;;;;;;;7385162;19;20180;-69
2023/08/14 03:12:37;;;;;;;0.00;0.00;;;;;;;;;;7387493;19;20133;-68
2023/08/14 03:15:07;;;;;;;0.00;0.00;;;;;;;;;;7385787;19;20224;-69
2023/08/14 03:17:38;;;;;;;0.00;0.00;;;;;;;;;;7386899;19;20137;-69
2023/08/14 03:20:09;;;;;;;0.00;0.00;;;;;;;;;;7386237;19;20163;-69
2023/08/14 03:22:38;;;;;;;0.00;0.00;;;;;;;;;;7385811;19;20149;-69
2023/08/14 03:25:07;;;;;;;0.00;0.00;;;;;;;;;;7386206;19;20155;-69
2023/08/14 03:27:36;;;;;;;0.00;0.00;;;;;;;;;;7384991;19;20204;-69
2023/08/14 03:30:06;;;;;;;0.00;0.00;;;;;;;;;;7383820;19;20194;-69
2023/08/14 03:32:35;;;;;;;0.00;0.00;;;;;;;;;;7384879;19;20184;-69
2023/08/14 03:35:09;;;;;;;0.00;0.00;;;;;;;;;;7386002;19;20161;-69
2023/08/14 03:37:38;;;;;;;0.00;0.00;;;;;;;;;;7385092;19;20153;-69
2023/08/14 03:40:09;;;;;;;0.00;0.00;;;;;;;;;;7383904;19;20176;-69
2023/08/14 03:42:38;;;;;;;0.00;0.00;;;;;;;;;;7389186;19;20179;-68
2023/08/14 03:45:08;;;;;;;0.00;0.00;;;;;;;;;;7392781;19;20168;-69
2023/08/14 03:47:37;;;;;;;0.00;0.00;;;;;;;;;;7393789;19;20153;-69
2023/08/14 03:50:09;;;;;;;0.00;0.00;;;;;;;;;;7391540;19;20184;-68
2023/08/14 03:52:38;;;;;;;0.00;0.00;;;;;;;;;;7392086;19;20189;-68
2023/08/14 03:55:07;;;;;;;0.00;0.00;;;;;;;;;;7392338;19;20160;-69
2023/08/14 03:57:36;;;;;;;0.00;0.00;;;;;;;;;;7392161;19;20165;-69
2023/08/14 04:00:05;;;;;;;0.00;0.00;;;;;;;;;;7392840;19;20160;-69
2023/08/14 04:02:41;;;;;;;0.00;0.00;;;;;;;;;;7390923;19;20148;-68
2023/08/14 04:05:13;;;;;;;0.00;0.00;;;;;;;;;;7394457;19;20155;-69
2023/08/14 04:07:42;;;;;;;0.00;0.00;;;;;;;;;;7393107;19;20163;-69
2023/08/14 04:10:11;;;;;;;0.00;0.00;;;;;;;;;;7391606;19;20180;-68
2023/08/14 04:12:40;;;;;;;0.00;0.00;;;;;;;;;;7391977;19;20176;-69
2023/08/14 04:15:16;;;;;;;0.00;0.00;;;;;;;;;;7392755;19;20185;-69
2023/08/14 04:17:45;;;;;;;0.00;0.00;;;;;;;;;;7391432;19;20148;-69
2023/08/14 04:20:17;;;;;;;0.00;0.00;;;;;;;;;;7390329;19;20177;-68
2023/08/14 04:22:46;;;;;;;0.00;0.00;;;;;;;;;;7391666;19;20152;-69
2023/08/14 04:25:16;;;;;;;0.00;0.00;;;;;;;;;;7393195;19;20149;-68
2023/08/14 04:27:45;;;;;;;0.00;0.00;;;;;;;;;;7393078;19;20157;-69
2023/08/14 04:30:15;;;;;;;0.00;0.00;;;;;;;;;;7390942;19;20729;-68
2023/08/14 04:32:44;;;;;;;0.00;0.00;;;;;;;;;;7392884;19;20207;-69
2023/08/14 04:35:13;;;;;;;0.00;0.00;;;;;;;;;;7390962;19;20152;-69
2023/08/14 04:37:46;;;;;;;0.00;0.00;;;;;;;;;;7392028;19;20148;-69
2023/08/14 04:40:15;;;;;;;0.00;0.00;;;;;;;;;;7390560;19;20220;-69
2023/08/14 04:42:44;;;;;;;0.00;0.00;;;;;;;;;;7391347;19;20153;-68
2023/08/14 04:45:14;;;;;;;0.00;0.00;;;;;;;;;;7394002;19;20133;-69
2023/08/14 04:47:42;;;;;;;0.00;0.00;;;;;;;;;;7391296;19;20152;-69
2023/08/14 04:50:13;;;;;;;0.00;0.00;;;;;;;;;;7386969;19;20181;-68
2023/08/14 04:52:42;;;;;;;0.00;0.00;;;;;;;;;;7388181;19;20163;-68
2023/08/14 04:55:13;;;;;;;0.00;0.00;;;;;;;;;;7389537;19;20156;-69
2023/08/14 04:57:43;;;;;;;0.00;0.00;;;;;;;;;;7390116;19;20174;-69
2023/08/14 05:00:12;;;;;;;0.00;0.00;;;;;;;;;;7391403;19;20171;-69
2023/08/14 05:02:42;;;;;;;0.00;0.00;;;;;;;;;;7391186;19;20136;-69
2023/08/14 05:05:12;;;;;;;0.00;0.00;;;;;;;;;;7391531;19;20161;-69
2023/08/14 05:07:41;;;;;;;0.00;0.00;;;;;;;;;;7388498;19;20153;-71
2023/08/14 05:10:10;;;;;;;0.00;0.00;;;;;;;;;;7389224;19;20184;-70
2023/08/14 05:12:41;;;;;;;0.00;0.00;;;;;;;;;;7390861;19;20219;-68
2023/08/14 05:15:11;;;;;;;0.00;0.00;;;;;;;;;;7389376;19;20161;-68
2023/08/14 05:17:40;;;;;;;0.00;0.00;;;;;;;;;;7383394;19;20156;-68
2023/08/14 05:20:10;;;;;;;0.00;0.00;;;;;;;;;;7388317;19;20216;-67
2023/08/14 05:22:39;;;;;;;0.00;0.00;;;;;;;;;;7389520;19;20156;-69
2023/08/14 05:25:10;;;;;;;0.00;0.00;;;;;;;;;;7389596;19;20197;-68
2023/08/14 05:27:42;;;;;;;0.00;0.00;;;;;;;;;;7388629;19;20152;-68
2023/08/14 05:30:11;;;;;;;0.00;0.00;;;;;;;;;;7388227;19;20173;-69
2023/08/14 05:32:41;;;;;;;0.00;0.00;;;;;;;;;;7380466;19;20157;-67
2023/08/14 05:35:10;;;;;;;0.00;0.00;;;;;;;;;;7382511;19;20164;-68
2023/08/14 05:37:39;;;;;;;0.00;0.00;;;;;;;;;;7387564;19;20148;-69
2023/08/14 05:40:10;;;;;;;0.00;0.00;;;;;;;;;;7381343;19;20184;-68
2023/08/14 05:42:41;;;;;;;0.00;0.00;;;;;;;;;;7379389;19;20148;-69
2023/08/14 05:45:10;;;;;;;0.00;0.00;;;;;;;;;;7379899;19;20159;-69
2023/08/14 05:47:39;;;;;;;0.00;0.00;;;;;;;;;;7382228;19;20140;-69
2023/08/14 05:50:09;;;;;;;0.00;0.00;;;;;;;;;;7380554;19;20156;-69
2023/08/14 05:52:38;;;;;;;0.00;0.00;;;;;;;;;;7380178;19;20179;-69
2023/08/14 05:55:07;;;;;;;0.00;0.00;;;;;;;;;;7381932;19;20159;-68
2023/08/14 05:57:36;;;;;;;0.00;0.00;;;;;;;;;;7381422;19;20136;-69
2023/08/14 06:00:10;;;;;;;0.00;0.00;;;;;;;;;;7380009;19;20175;-69
2023/08/14 06:02:41;;;;;;;0.00;0.00;;;;;;;;;;7381155;19;20121;-68
2023/08/14 06:05:10;;;;;;;0.00;0.00;;;;;;;;;;7380089;19;20140;-69
2023/08/14 06:07:39;;;;;;;0.00;0.00;;;;;;;;;;7379592;19;20156;-69
2023/08/14 06:10:09;;;;;;;0.00;0.00;;;;;;;;;;7379898;19;20179;-68
2023/08/14 06:12:38;;;;;;;0.00;0.00;;;;;;;;;;7378326;19;20153;-68
2023/08/14 06:15:11;;;;;;;0.00;0.00;;;;;;;;;;7380594;19;20179;-69
2023/08/14 06:17:40;;;;;;;0.00;0.00;;;;;;;;;;7379260;19;20153;-68
2023/08/14 06:20:10;;;;;;;0.00;0.00;;;;;;;;;;7379279;19;20188;-69
2023/08/14 06:22:42;;;;;;;0.00;0.00;;;;;;;;;;7377174;19;20220;-69
2023/08/14 06:25:11;;;;;;;0.00;0.00;;;;;;;;;;7382019;19;20196;-69
2023/08/14 06:27:40;;;;;;;0.00;0.00;;;;;;;;;;7379905;19;20129;-69
2023/08/14 06:30:14;;;;;;;0.00;0.00;;;;;;;;;;7379693;19;20176;-68
2023/08/14 06:32:43;;;;;;;0.00;0.00;;;;;;;;;;7380930;19;20129;-69
2023/08/14 06:35:12;;;;;;;0.00;0.00;;;;;;;;;;7381731;19;20634;-69
2023/08/14 06:37:41;;;;;;;0.00;0.00;;;;;;;;;;7376626;19;20169;-68
2023/08/14 06:40:11;;;;;;;0.00;0.00;;;;;;;;;;7379452;19;20179;-69
2023/08/14 06:42:40;;;;;;;0.00;0.00;;;;;;;;;;7379505;19;20153;-69
2023/08/14 06:45:10;;;;;;;0.00;0.00;;;;;;;;;;7380349;19;20166;-69
2023/08/14 06:47:45;;;;;;;0.00;0.00;;;;;;;;;;7379539;19;20153;-69
2023/08/14 06:50:15;;;;;;;0.00;0.00;;;;;;;;;;7379537;19;20159;-69
2023/08/14 06:52:43;;;;;;;0.00;0.00;;;;;;;;;;7379308;19;20152;-69
2023/08/14 06:55:12;;;;;;;0.00;0.00;;;;;;;;;;7380938;19;20144;-69
2023/08/14 06:57:41;;;;;;;0.00;0.00;;;;;;;;;;7376509;19;20144;-69
2023/08/14 07:00:13;;;;;;;0.00;0.00;;;;;;;;;;7377177;19;20615;-69
2023/08/14 07:02:47;;;;;;;0.00;0.00;;;;;;;;;;7377366;19;20160;-70
2023/08/14 07:05:16;;;;;;;0.00;0.00;;;;;;;;;;7379362;19;20152;-69
2023/08/14 07:07:45;;;;;;;0.00;0.00;;;;;;;;;;7378151;19;20161;-69
2023/08/14 07:10:14;;;;;;;0.00;0.00;;;;;;;;;;7379421;19;20156;-68
2023/08/14 07:12:43;;;;;;;0.00;0.00;;;;;;;;;;7377525;19;20157;-69
2023/08/14 07:15:13;;;;;;;0.00;0.00;;;;;;;;;;7379459;19;20156;-69
2023/08/14 07:17:44;;;;;;;0.00;0.00;;;;;;;;;;7382093;19;20239;-69
2023/08/14 07:20:14;;;;;;;0.00;0.00;;;;;;;;;;7385154;19;20212;-68
2023/08/14 07:22:44;;;;;;;0.00;0.00;;;;;;;;;;7384933;19;20158;-68
2023/08/14 07:25:13;;;;;;;0.00;0.00;;;;;;;;;;7387797;19;20137;-69
2023/08/14 07:27:42;;;;;;;0.00;0.00;;;;;;;;;;7385389;19;20175;-69
2023/08/14 07:30:12;;;;;;;0.00;0.00;;;;;;;;;;7384630;19;20180;-68
2023/08/14 07:32:41;;;;;;;0.00;0.00;;;;;;;;;;7385067;19;20720;-69
2023/08/14 07:35:13;;;;;;;0.00;0.00;;;;;;;;;;7387927;19;20136;-69
2023/08/14 07:37:42;;;;;;;0.00;0.00;;;;;;;;;;7383969;19;20136;-69
2023/08/14 07:40:11;;;;;;;0.00;0.00;;;;;;;;;;7385877;19;20635;-70
2023/08/14 07:42:40;;;;;;;0.00;0.00;;;;;;;;;;7386588;19;20149;-68
2023/08/14 07:45:09;;;;;;;0.00;0.00;;;;;;;;;;7386880;19;20165;-69
2023/08/14 07:47:38;;;;;;;0.00;0.00;;;;;;;;;;7389110;19;20160;-69
2023/08/14 07:50:08;;;;;;;0.00;0.00;;;;;;;;;;7384248;19;20192;-70
2023/08/14 07:52:39;;;;;;;0.00;0.00;;;;;;;;;;7387442;19;20610;-69
2023/08/14 07:55:08;;;;;;;0.00;0.00;;;;;;;;;;7387101;19;20132;-68
2023/08/14 07:57:37;;;;;;;0.00;0.00;;;;;;;;;;7386355;19;20140;-69
2023/08/14 08:00:09;;;;;;;0.00;0.00;;;;;;;;;;7385670;19;20145;-69
2023/08/14 08:02:40;;;;;;;0.00;0.00;;;;;;;;;;7386552;19;20146;-69
2023/08/14 08:05:09;;;;;;;0.00;0.00;;;;;;;;;;7386059;19;20140;-69
2023/08/14 08:07:41;;;;;;;0.00;0.00;;;;;;;;;;7385081;19;20144;-69
2023/08/14 08:10:10;;;;;;;0.00;0.00;;;;;;;;;;7384621;19;20160;-69
2023/08/14 08:12:39;;;;;;;0.00;0.00;;;;;;;;;;7385420;19;20148;-69
2023/08/14 08:15:09;;;;;;;0.00;0.00;;;;;;;;;;7386141;19;20132;-69
2023/08/14 08:17:38;;;;;;;0.00;0.00;;;;;;;;;;7384333;19;20144;-70
2023/08/14 08:20:09;;;;;;;0.00;0.00;;;;;;;;;;7384173;19;20145;-70
2023/08/14 08:22:38;;;;;;;0.00;0.00;;;;;;;;;;7385505;19;20136;-69
2023/08/14 08:25:10;;;;;;;0.00;0.00;;;;;;;;;;7384143;19;20159;-69
2023/08/14 08:27:39;;;;;;;0.00;0.00;;;;;;;;;;7384380;19;20148;-70
2023/08/14 08:30:08;;;;;;;0.00;0.00;;;;;;;;;;7382968;19;20636;-70
2023/08/14 08:32:37;;;;;;;0.00;0.00;;;;;;;;;;7383861;19;20271;-70
2023/08/14 08:35:06;;;;;;;0.00;0.00;;;;;;;;;;7385258;19;20145;-68
2023/08/14 08:37:39;;;;;;;0.00;0.00;;;;;;;;;;7383714;19;20141;-68
2023/08/14 08:40:11;;;;;;;0.00;0.00;;;;;;;;;;7382659;19;20175;-69
2023/08/14 08:42:40;;;;;;;0.00;0.00;;;;;;;;;;7384609;19;20151;-69
2023/08/14 08:45:10;;;;;;;0.00;0.00;;;;;;;;;;7385015;19;20192;-70
2023/08/14 08:47:41;;;;;;;0.00;0.00;;;;;;;;;;7385825;19;20136;-69
2023/08/14 08:50:12;;;;;;;0.00;0.00;;;;;;;;;;7382375;19;20148;-69
2023/08/14 08:52:41;;;;;;;0.00;0.00;;;;;;;;;;7385982;19;20133;-69
2023/08/14 08:55:13;;;;;;;0.00;0.00;;;;;;;;;;7384248;19;20620;-69
2023/08/14 08:57:42;;;;;;;0.00;0.00;;;;;;;;;;7381479;19;20166;-68
2023/08/14 09:00:12;;;;;;;0.00;0.00;;;;;;;;;;7380511;19;20184;-69
2023/08/14 09:02:41;;;;;;;0.00;0.00;;;;;;;;;;7384346;19;20133;-69
2023/08/14 09:05:10;;;;;;;0.00;0.00;;;;;;;;;;7380978;19;20156;-69
2023/08/14 09:07:39;;;;;;;0.00;0.00;;;;;;;;;;7382086;19;20164;-68
2023/08/14 09:10:08;;;;;;;0.00;0.00;;;;;;;;;;7379896;19;20176;-68
2023/08/14 09:12:40;;;;;;;0.00;0.00;;;;;;;;;;7382129;19;20164;-69
2023/08/14 09:15:10;;;;;;;0.00;0.00;;;;;;;;;;7381712;19;20157;-69
2023/08/14 09:17:39;;;;;;;0.00;0.00;;;;;;;;;;7383222;19;20204;-68
2023/08/14 09:20:09;;;;;;;0.00;0.00;;;;;;;;;;7381345;19;20195;-68
2023/08/14 09:22:40;;;;;;;0.00;0.00;;;;;;;;;;7383179;19;20137;-69
2023/08/14 09:25:09;;;;;;;0.00;0.00;;;;;;;;;;7381472;19;20153;-69
2023/08/14 09:27:41;;;;;;;0.00;0.00;;;;;;;;;;7381681;19;20156;-69
2023/08/14 09:30:10;;;;;;;0.00;0.00;;;;;;;;;;7374050;19;20171;-71
2023/08/14 09:32:40;;;;;;;0.00;0.00;;;29.30;99.90;;;;;;7384013;19;20133;-69
2023/08/14 09:35:10;;;;;;;0.00;0.00;;;29.20;99.90;;;;;;7379925;19;20197;-69
2023/08/14 09:37:40;;;;;;;0.00;0.00;;;29.20;99.90;;;;;;7382701;19;20141;-69
2023/08/14 09:40:16;;;;;;;0.00;0.00;;;29.30;99.90;;;;;;7378059;19;20149;-71
2023/08/14 09:42:49;;;;;;;0.00;0.00;;;29.40;99.90;;;;;;7383625;19;20132;-69
2023/08/14 09:45:19;;;;;;;0.00;0.00;;;29.50;99.90;;;;;;7380961;19;20164;-68
2023/08/14 09:47:49;;;;;;;0.00;0.00;;;29.30;99.90;;;;;;7381816;19;20149;-69
2023/08/14 09:50:20;;;;;;;0.00;0.00;;;29.20;99.90;;;;;;7378101;19;20695;-69
2023/08/14 09:52:49;;;;;;;0.00;0.00;;;29.20;99.90;;;;;;7382501;19;20141;-69
2023/08/14 09:55:18;;;;;;;0.00;0.00;;;29.20;99.90;;;;;;7381702;19;20133;-69
2023/08/14 09:57:50;;;;;;;0.00;0.00;;;29.20;99.90;;;;;;7380082;19;20153;-69
2023/08/14 10:00:19;;;;;;;0.00;0.00;;;;;;;;;;7378837;19;20149;-69
2023/08/14 10:02:49;;;;;;;0.00;0.00;;;;;;;;;;7387993;19;20200;-69
2023/08/14 10:05:18;;;;;;;0.00;0.00;;;;;;;;;;7390273;19;20694;-70
2023/08/14 10:07:48;;;;;;;0.00;0.00;;;;;;;;;;7390505;19;20159;-69
2023/08/14 10:10:17;;;;;;;0.00;0.00;;;;;;;;;;7387571;19;20175;-69
2023/08/14 10:12:53;;;;;;;0.00;0.00;;;;;;;;;;7389098;19;20156;-70
2023/08/14 10:15:28;;;;;;;0.00;0.00;;;;;;;;;;7389802;19;20154;-69
2023/08/14 10:17:59;;;;;;;0.00;0.00;;;;;;;;;;7387735;19;20162;-69
2023/08/14 10:20:29;;;;;;;0.00;0.00;;;;;;;;;;7389104;19;20152;-69
2023/08/14 10:22:58;;;;;;;0.00;0.00;;;;;;;;;;7389991;19;20163;-69
2023/08/14 10:25:27;;;;;;;0.00;0.00;;;;;;;;;;7390484;19;20141;-70
2023/08/14 10:27:58;;;;;;;0.00;0.00;;;;;;;;;;7389617;19;20141;-69
2023/08/14 10:30:28;;;;;;;0.00;0.00;;;;;;;;;;7385944;19;20156;-69
2023/08/14 10:32:57;;;;;;;0.00;0.00;;;30.70;99.90;;;;;;7389779;19;20137;-67
2023/08/14 10:35:26;;;;;;;0.00;0.00;;;30.70;99.90;;;;;;7389836;19;20152;-68
2023/08/14 10:37:55;;;;;;;0.00;0.00;;;30.80;99.90;;;;;;7387973;19;20141;-69
2023/08/14 10:40:25;;;;;;;0.00;0.00;;;30.80;99.90;;;;;;7386341;19;20193;-67
2023/08/14 10:42:55;;;;;;;0.00;0.00;;;;;;;;;;7387735;19;20619;-69
2023/08/14 10:45:29;;;;;;;0.00;0.00;;;31.20;99.90;;;;;;7389405;19;20186;-68
2023/08/14 10:48:02;;;;;;;0.00;0.00;;;31.10;99.90;;;;;;7389074;19;20137;-69
2023/08/14 10:50:32;;;;;;;0.00;0.00;;;31.30;99.90;;;;;;7387335;19;20161;-69
2023/08/14 10:53:01;;;;;;;0.00;0.00;;;31.30;99.90;;;;;;7387471;19;20137;-68
2023/08/14 10:55:39;;;;;;;0.00;0.00;;;31.20;99.90;;;;;;7389118;19;20129;-69
2023/08/14 10:58:38;;;;;;;0.00;0.00;;;31.00;99.90;;;;;;7386701;19;20133;-69
2023/08/14 11:01:11;;;;;;;0.00;0.00;;;30.90;99.90;;;;;;7384333;19;20243;-70
2023/08/14 11:03:58;;;;;;;0.00;0.00;;;30.70;99.90;;;;;;7389364;19;20147;-69
2023/08/14 11:06:28;;;;;;;0.00;0.00;;;30.60;99.90;;;;;;7389324;19;20138;-68
2023/08/14 11:09:03;;;;;;;0.00;0.00;;;30.70;99.90;;;;;;7389409;19;20141;-70
2023/08/14 11:11:32;;;;;;;0.00;0.00;;;30.70;99.90;;;;;;7386583;19;20149;-69
2023/08/14 11:14:04;;;;;;;0.00;0.00;;;30.80;99.90;;;;;;7384863;19;20133;-69
2023/08/14 11:16:37;;;;;;;0.00;0.00;;;30.90;99.90;;;;;;7387770;19;20257;-69
2023/08/14 11:19:07;;;;;;;0.00;0.00;;;31.00;99.90;;;;;;7385383;19;20161;-69
2023/08/14 11:21:37;;;;;;;0.00;0.00;;;31.00;99.90;;;;;;7386338;19;20156;-69
2023/08/14 11:24:12;;;;;;;0.00;0.00;;;31.10;99.90;;;;;;7386764;19;20156;-68
2023/08/14 11:26:41;;;;;;;0.00;0.00;;;;;;;;;;7387671;19;20152;-69
2023/08/14 11:29:10;;;;;;;0.00;0.00;;;;;;;;;;7385863;19;20157;-70
2023/08/14 11:31:45;;;;;;;0.00;0.00;;;;;;;;;;7385067;19;20145;-69
2023/08/14 11:34:14;;;;;;;0.00;0.00;;;31.60;99.90;;;;;;7385687;19;20129;-70
2023/08/14 11:36:44;;;;;;;0.00;0.00;;;31.70;99.90;;;;;;7388392;19;20159;-69
2023/08/14 11:39:13;;;;;;;0.00;0.00;;;31.60;99.90;;;;;;7383795;19;20157;-69
2023/08/14 11:41:41;;;;;;;0.00;0.00;;;31.60;99.90;;;;;;7384290;19;20168;-70
2023/08/14 11:44:10;;;;;;;0.00;0.00;;;31.50;99.90;;;;;;7386458;19;20133;-69
2023/08/14 11:46:41;;;;;;;0.00;0.00;;;31.40;99.90;;;;;;7386995;19;20179;-69
2023/08/14 11:49:10;;;;;;;0.00;0.00;;;31.40;99.90;;;;;;7387104;19;20168;-69
2023/08/14 11:51:39;;;;;;;0.00;0.00;;;31.30;99.90;;;;;;7383480;19;20207;-69
2023/08/14 11:54:09;;;;;;;0.00;0.00;;;31.10;99.90;;;;;;7387823;19;20200;-69
2023/08/14 11:56:38;;;;;;;0.00;0.00;;;31.00;99.90;;;;;;7386897;19;20153;-69
2023/08/14 11:59:07;;;;;;;0.00;0.00;;;30.90;99.90;;;;;;7382917;19;20159;-68
2023/08/14 12:01:38;;;;;;;0.00;0.00;;;30.90;99.90;;;;;;7383061;19;20199;-69
2023/08/14 12:04:09;;;;;;;0.00;0.00;;;30.70;99.90;;;;;;7390436;19;20159;-69
2023/08/14 12:06:38;;;;;;;0.00;0.00;;;30.60;99.90;;;;;;7395640;19;20144;-69
2023/08/14 12:09:10;;;;;;;0.00;0.00;;;30.60;99.90;;;;;;7392852;19;20153;-69
2023/08/14 12:11:40;;;;;;;0.00;0.00;;;30.80;99.90;;;;;;7390438;19;20180;-69
2023/08/14 12:14:11;;;;;;;0.00;0.00;;;31.00;99.90;;;;;;7392329;19;20157;-69
2023/08/14 12:16:43;;;;;;;0.00;0.00;;;31.30;99.90;;;;;;7393953;19;20149;-70
2023/08/14 12:19:15;;;;;;;0.00;0.00;;;;;;;;;;7390172;19;20152;-69
2023/08/14 12:21:44;;;;;;;0.00;0.00;;;;;;;;;;7392017;19;20172;-71
2023/08/14 12:24:19;;;;;;;0.00;0.00;;;;;;;;;;7392197;19;20179;-69
2023/08/14 12:26:48;;;;;;;0.00;0.00;;;;;;;;;;7393960;19;20140;-69
2023/08/14 12:29:17;;;;;;;0.00;0.00;;;;;;;;;;7391644;19;20144;-69
2023/08/14 12:31:46;;;;;;;0.00;0.00;;;;;;;;;;7390289;19;20631;-69
2023/08/14 12:34:21;;;;;;;0.00;0.00;;;;;;;;;;7390814;19;20156;-68
2023/08/14 12:36:50;;;;;;;0.00;0.00;;;;;;;;;;7392984;19;20180;-70
2023/08/14 12:39:19;;;;;;;0.00;0.00;;;;;;;;;;7389434;19;20137;-68
2023/08/14 12:41:48;;;;;;;0.00;0.00;;;;;;;;;;7388893;19;20188;-69
2023/08/14 12:44:17;;;;;;;0.00;0.00;;;;;;;;;;7392721;19;20133;-69
2023/08/14 12:46:46;;;;;;;0.00;0.00;;;;;;;;;;7394458;19;20179;-69
2023/08/14 12:49:15;;;;;;;0.00;0.00;;;;;;;;;;7391090;19;20160;-69
2023/08/14 12:51:46;;;;;;;0.00;0.00;;;;;;;;;;7390978;19;20156;-69
2023/08/14 12:54:15;;;;;;;0.00;0.00;;;;;;;;;;7388228;19;20144;-68
2023/08/14 12:56:45;;;;;;;0.00;0.00;;;;;;;;;;7392690;19;20141;-69
2023/08/14 12:59:14;;;;;;;0.00;0.00;;;;;;;;;;7388232;19;20190;-68
2023/08/14 13:01:43;;;;;;;0.00;0.00;;;;;;;;;;7388096;19;20184;-69
2023/08/14 13:04:12;;;;;;;0.00;0.00;;;;;;;;;;7392380;19;20175;-69
2023/08/14 13:06:41;;;;;;;0.00;0.00;;;;;;;;;;7392161;19;20160;-69
2023/08/14 13:09:13;;;;;;;0.00;0.00;;;;;;;;;;7392259;19;20153;-69
2023/08/14 13:11:42;;;;;;;0.00;0.00;;;;;;;;;;7389494;19;20198;-69
2023/08/14 13:14:11;;;;;;;0.00;0.00;;;;;;;;;;7391023;19;20196;-70
2023/08/14 13:16:40;;;;;;;0.00;0.00;;;;;;;;;;7393162;19;20156;-68
2023/08/14 13:19:09;;;;;;;0.00;0.00;;;;;;;;;;7391074;19;20145;-69
2023/08/14 13:21:38;;;;;;;0.00;0.00;;;;;;;;;;7388871;19;20155;-69
2023/08/14 13:24:09;;;;;;;0.00;0.00;;;;;;;;;;7391419;19;20141;-68
2023/08/14 13:26:41;;;;;;;0.00;0.00;;;;;;;;;;7389938;19;20170;-68
2023/08/14 13:29:10;;;;;;;0.00;0.00;;;;;;;;;;7393267;19;20145;-69
2023/08/14 13:31:39;;;;;;;0.00;0.00;;;;;;;;;;7389470;19;20153;-68
2023/08/14 13:34:08;;;;;;;0.00;0.00;;;;;;;;;;7390691;19;20176;-69
2023/08/14 13:36:37;;;;;;;0.00;0.00;;;;;;;;;;7391646;19;20148;-69
2023/08/14 13:39:07;;;;;;;0.00;0.00;;;;;;;;;;7389343;19;20172;-68
2023/08/14 13:41:36;;;;;;;0.00;0.00;;;;;;;;;;7387955;19;20149;-68
2023/08/14 13:44:08;;;;;;;0.00;0.00;;;;;;;;;;7389775;19;20156;-69
2023/08/14 13:46:37;;;;;;;0.00;0.00;;;;;;;;;;7391207;19;20128;-69
2023/08/14 13:49:09;;;;;;;0.00;0.00;;;;;;;;;;7391099;19;20503;-69
2023/08/14 13:51:39;;;;;;;0.00;0.00;;;;;;;;;;7389196;19;20148;-68
2023/08/14 13:54:08;;;;;;;0.00;0.00;;;;;;;;;;7391991;19;20592;-70
2023/08/14 13:56:37;;;;;;;0.00;0.00;;;;;;;;;;7389180;19;20157;-69
2023/08/14 13:59:09;;;;;;;0.00;0.00;;;;;;;;;;7388726;19;20137;-69
2023/08/14 14:01:38;;;;;;;0.00;0.00;;;;;;;;;;7387947;19;20157;-68
2023/08/14 14:04:07;;;;;;;0.00;0.00;;;;;;;;;;7390788;19;20137;-68
2023/08/14 14:06:36;;;;;;;0.00;0.00;;;;;;;;;;7390639;19;20579;-68
2023/08/14 14:09:05;;;;;;;0.00;0.00;;;;;;;;;;7388950;19;20279;-69
2023/08/14 14:11:34;;;;;;;0.00;0.00;;;;;;;;;;7385728;19;20227;-67
2023/08/14 14:14:03;;;;;;;0.00;0.00;;;;;;;;;;7388710;19;20527;-68
2023/08/14 14:16:52;;;;;;;0.00;0.00;;;;;;;;;;7388919;19;20144;-68
2023/08/14 14:19:22;;;;;;;0.00;0.00;;;;;;;;;;7385603;19;20149;-69
2023/08/14 14:21:51;;;;;;;0.00;0.00;;;;;;;;;;7385807;19;20203;-68
2023/08/14 14:24:20;;;;;;;0.00;0.00;;;;;;;;;;7387536;19;20155;-69
2023/08/14 14:26:49;;;;;;;0.00;0.00;;;;;;;;;;7388412;19;20157;-69
2023/08/14 14:29:18;;;;;;;0.00;0.00;;;;;;;;;;7387909;19;20157;-69
2023/08/14 14:31:50;;;;;;;0.00;0.00;;;;;;;;;;7387014;19;20177;-69
2023/08/14 14:34:19;;;;;;;0.00;0.00;;;;;;;;;;7387823;19;20157;-70
2023/08/14 14:36:48;;;;;;;0.00;0.00;;;;;;;;;;7390631;19;20148;-70
2023/08/14 14:39:17;;;;;;;0.00;0.00;;;;;;;;;;7387923;19;20159;-68